sensor_id;sensor_type;location;lat;lon;timestamp;P1;durP1;ratioP1;P2;durP2;ratioP2
12112;SDS011;6120;52.250;8.478;2022-07-29T00:02:14;4.10;;;1.13;;
12112;SDS011;6120;52.250;8.478;2022-07-29T00:04:40;2.25;;;1.20;;
12112;SDS011;6120;52.250;8.478;2022-07-29T00:07:07;3.83;;;1.25;;
12112;SDS011;6120;52.250;8.478;2022-07-29T00:09:35;1.85;;;1.10;;
12112;SDS011;6120;52.250;8.478;2022-07-29T00:12:17;4.35;;;1.10;;
12112;SDS011;6120;52.250;8.478;2022-07-29T00:14:51;2.70;;;1.10;;
12112;SDS011;6120;52.250;8.478;2022-07-29T00:17:22;3.75;;;1.20;;
12112;SDS011;6120;52.250;8.478;2022-07-29T00:19:49;3.67;;;1.20;;
12112;SDS011;6120;52.250;8.478;2022-07-29T00:22:15;2.88;;;1.08;;
12112;SDS011;6120;52.250;8.478;2022-07-29T00:24:42;3.67;;;1.00;;
12112;SDS011;6120;52.250;8.478;2022-07-29T00:27:09;2.47;;;1.20;;
12112;SDS011;6120;52.250;8.478;2022-07-29T00:29:35;2.88;;;1.30;;
12112;SDS011;6120;52.250;8.478;2022-07-29T00:32:02;4.93;;;1.40;;
12112;SDS011;6120;52.250;8.478;2022-07-29T00:34:29;5.72;;;1.52;;
12112;SDS011;6120;52.250;8.478;2022-07-29T00:37:15;2.88;;;1.23;;
12112;SDS011;6120;52.250;8.478;2022-07-29T00:39:42;3.45;;;1.10;;
12112;SDS011;6120;52.250;8.478;2022-07-29T00:42:08;5.20;;;1.23;;
12112;SDS011;6120;52.250;8.478;2022-07-29T00:44:39;4.60;;;1.27;;
12112;SDS011;6120;52.250;8.478;2022-07-29T00:47:07;6.07;;;1.30;;
12112;SDS011;6120;52.250;8.478;2022-07-29T00:49:35;2.28;;;1.15;;
12112;SDS011;6120;52.250;8.478;2022-07-29T00:52:02;4.68;;;1.35;;
12112;SDS011;6120;52.250;8.478;2022-07-29T00:54:30;6.78;;;1.40;;
12112;SDS011;6120;52.250;8.478;2022-07-29T00:56:57;4.07;;;1.30;;
12112;SDS011;6120;52.250;8.478;2022-07-29T00:59:25;4.30;;;1.17;;
12112;SDS011;6120;52.250;8.478;2022-07-29T01:02:00;3.85;;;1.10;;
12112;SDS011;6120;52.250;8.478;2022-07-29T01:04:29;5.43;;;1.20;;
12112;SDS011;6120;52.250;8.478;2022-07-29T01:06:57;3.53;;;1.25;;
12112;SDS011;6120;52.250;8.478;2022-07-29T01:09:24;4.05;;;1.35;;
12112;SDS011;6120;52.250;8.478;2022-07-29T01:12:10;2.03;;;1.10;;
12112;SDS011;6120;52.250;8.478;2022-07-29T01:14:39;4.25;;;1.20;;
12112;SDS011;6120;52.250;8.478;2022-07-29T01:17:10;5.50;;;1.53;;
12112;SDS011;6120;52.250;8.478;2022-07-29T01:22:24;2.72;;;1.20;;
12112;SDS011;6120;52.250;8.478;2022-07-29T01:30:15;2.92;;;1.08;;
12112;SDS011;6120;52.250;8.478;2022-07-29T01:32:42;4.53;;;1.42;;
12112;SDS011;6120;52.250;8.478;2022-07-29T01:35:16;4.35;;;1.35;;
12112;SDS011;6120;52.250;8.478;2022-07-29T01:37:47;2.97;;;1.23;;
12112;SDS011;6120;52.250;8.478;2022-07-29T01:40:21;6.32;;;1.40;;
12112;SDS011;6120;52.250;8.478;2022-07-29T01:42:54;2.78;;;1.15;;
12112;SDS011;6120;52.250;8.478;2022-07-29T01:48:16;4.30;;;1.05;;
12112;SDS011;6120;52.250;8.478;2022-07-29T01:50:46;2.53;;;0.93;;
12112;SDS011;6120;52.250;8.478;2022-07-29T01:53:16;2.70;;;1.10;;
12112;SDS011;6120;52.250;8.478;2022-07-29T01:55:49;4.38;;;1.20;;
12112;SDS011;6120;52.250;8.478;2022-07-29T01:58:17;3.53;;;1.30;;
12112;SDS011;6120;52.250;8.478;2022-07-29T02:00:45;3.50;;;1.02;;
12112;SDS011;6120;52.250;8.478;2022-07-29T02:03:13;4.20;;;1.27;;
12112;SDS011;6120;52.250;8.478;2022-07-29T02:05:41;2.20;;;1.08;;
12112;SDS011;6120;52.250;8.478;2022-07-29T02:08:09;3.75;;;1.20;;
12112;SDS011;6120;52.250;8.478;2022-07-29T02:10:36;3.03;;;1.00;;
12112;SDS011;6120;52.250;8.478;2022-07-29T02:13:04;4.82;;;1.20;;
12112;SDS011;6120;52.250;8.478;2022-07-29T02:15:32;5.68;;;1.27;;
12112;SDS011;6120;52.250;8.478;2022-07-29T02:18:14;4.53;;;1.10;;
12112;SDS011;6120;52.250;8.478;2022-07-29T02:20:44;5.57;;;1.23;;
12112;SDS011;6120;52.250;8.478;2022-07-29T02:23:14;2.53;;;0.98;;
12112;SDS011;6120;52.250;8.478;2022-07-29T02:25:44;5.40;;;1.40;;
12112;SDS011;6120;52.250;8.478;2022-07-29T02:28:16;2.83;;;1.10;;
12112;SDS011;6120;52.250;8.478;2022-07-29T02:30:43;2.92;;;1.20;;
12112;SDS011;6120;52.250;8.478;2022-07-29T02:33:12;2.92;;;1.42;;
12112;SDS011;6120;52.250;8.478;2022-07-29T02:35:40;4.68;;;1.25;;
12112;SDS011;6120;52.250;8.478;2022-07-29T02:38:07;2.47;;;1.30;;
12112;SDS011;6120;52.250;8.478;2022-07-29T02:40:54;3.20;;;1.20;;
12112;SDS011;6120;52.250;8.478;2022-07-29T02:43:21;1.75;;;1.05;;
12112;SDS011;6120;52.250;8.478;2022-07-29T02:45:49;6.05;;;1.30;;
12112;SDS011;6120;52.250;8.478;2022-07-29T02:48:18;3.80;;;1.38;;
12112;SDS011;6120;52.250;8.478;2022-07-29T02:50:54;2.90;;;1.20;;
12112;SDS011;6120;52.250;8.478;2022-07-29T02:53:27;4.00;;;1.10;;
12112;SDS011;6120;52.250;8.478;2022-07-29T02:56:01;2.22;;;1.13;;
12112;SDS011;6120;52.250;8.478;2022-07-29T02:58:38;5.75;;;1.38;;
12112;SDS011;6120;52.250;8.478;2022-07-29T03:01:16;2.70;;;1.00;;
12112;SDS011;6120;52.250;8.478;2022-07-29T03:03:51;1.95;;;0.90;;
12112;SDS011;6120;52.250;8.478;2022-07-29T03:06:20;3.70;;;1.20;;
12112;SDS011;6120;52.250;8.478;2022-07-29T03:09:03;3.72;;;1.10;;
12112;SDS011;6120;52.250;8.478;2022-07-29T03:11:37;2.90;;;1.20;;
12112;SDS011;6120;52.250;8.478;2022-07-29T03:14:14;2.92;;;1.13;;
12112;SDS011;6120;52.250;8.478;2022-07-29T03:16:43;2.75;;;1.30;;
12112;SDS011;6120;52.250;8.478;2022-07-29T03:19:10;2.67;;;1.08;;
12112;SDS011;6120;52.250;8.478;2022-07-29T03:21:37;5.05;;;1.23;;
12112;SDS011;6120;52.250;8.478;2022-07-29T03:24:03;4.72;;;1.20;;
12112;SDS011;6120;52.250;8.478;2022-07-29T03:26:35;3.08;;;1.23;;
12112;SDS011;6120;52.250;8.478;2022-07-29T03:29:02;4.53;;;1.40;;
12112;SDS011;6120;52.250;8.478;2022-07-29T03:31:29;3.78;;;1.20;;
12112;SDS011;6120;52.250;8.478;2022-07-29T03:33:55;3.47;;;1.10;;
12112;SDS011;6120;52.250;8.478;2022-07-29T03:36:23;2.47;;;1.08;;
12112;SDS011;6120;52.250;8.478;2022-07-29T03:38:50;3.80;;;1.15;;
12112;SDS011;6120;52.250;8.478;2022-07-29T03:41:18;3.72;;;1.17;;
12112;SDS011;6120;52.250;8.478;2022-07-29T03:43:47;2.92;;;1.15;;
12112;SDS011;6120;52.250;8.478;2022-07-29T03:46:16;4.78;;;1.65;;
12112;SDS011;6120;52.250;8.478;2022-07-29T03:48:46;4.40;;;1.00;;
12112;SDS011;6120;52.250;8.478;2022-07-29T03:51:15;3.20;;;1.23;;
12112;SDS011;6120;52.250;8.478;2022-07-29T03:53:42;3.30;;;1.10;;
12112;SDS011;6120;52.250;8.478;2022-07-29T03:56:08;2.53;;;1.13;;
12112;SDS011;6120;52.250;8.478;2022-07-29T03:58:36;3.00;;;1.10;;
12112;SDS011;6120;52.250;8.478;2022-07-29T04:01:04;2.97;;;1.30;;
12112;SDS011;6120;52.250;8.478;2022-07-29T04:03:30;6.53;;;1.23;;
12112;SDS011;6120;52.250;8.478;2022-07-29T04:05:58;3.13;;;0.95;;
12112;SDS011;6120;52.250;8.478;2022-07-29T04:08:28;4.63;;;1.40;;
12112;SDS011;6120;52.250;8.478;2022-07-29T04:10:55;3.05;;;1.15;;
12112;SDS011;6120;52.250;8.478;2022-07-29T04:13:22;2.20;;;1.02;;
12112;SDS011;6120;52.250;8.478;2022-07-29T04:15:48;2.55;;;1.10;;
12112;SDS011;6120;52.250;8.478;2022-07-29T04:18:15;3.33;;;1.02;;
12112;SDS011;6120;52.250;8.478;2022-07-29T04:20:42;4.35;;;1.40;;
12112;SDS011;6120;52.250;8.478;2022-07-29T04:23:09;3.53;;;1.05;;
12112;SDS011;6120;52.250;8.478;2022-07-29T04:25:39;2.35;;;1.20;;
12112;SDS011;6120;52.250;8.478;2022-07-29T04:28:07;1.40;;;0.93;;
12112;SDS011;6120;52.250;8.478;2022-07-29T04:30:34;4.78;;;1.23;;
12112;SDS011;6120;52.250;8.478;2022-07-29T04:33:02;3.63;;;1.13;;
12112;SDS011;6120;52.250;8.478;2022-07-29T04:35:31;2.05;;;0.93;;
12112;SDS011;6120;52.250;8.478;2022-07-29T04:38:04;3.72;;;1.50;;
12112;SDS011;6120;52.250;8.478;2022-07-29T04:40:31;3.45;;;1.00;;
12112;SDS011;6120;52.250;8.478;2022-07-29T04:43:00;3.45;;;1.27;;
12112;SDS011;6120;52.250;8.478;2022-07-29T04:45:31;4.60;;;1.10;;
12112;SDS011;6120;52.250;8.478;2022-07-29T04:47:57;3.30;;;1.30;;
12112;SDS011;6120;52.250;8.478;2022-07-29T04:50:24;1.95;;;0.93;;
12112;SDS011;6120;52.250;8.478;2022-07-29T04:52:51;2.92;;;1.40;;
12112;SDS011;6120;52.250;8.478;2022-07-29T04:55:17;3.80;;;1.20;;
12112;SDS011;6120;52.250;8.478;2022-07-29T04:57:44;5.07;;;1.15;;
12112;SDS011;6120;52.250;8.478;2022-07-29T05:00:11;3.75;;;1.55;;
12112;SDS011;6120;52.250;8.478;2022-07-29T05:02:38;4.30;;;1.10;;
12112;SDS011;6120;52.250;8.478;2022-07-29T05:05:05;4.07;;;1.20;;
12112;SDS011;6120;52.250;8.478;2022-07-29T05:07:32;3.92;;;1.13;;
12112;SDS011;6120;52.250;8.478;2022-07-29T05:09:59;2.78;;;1.10;;
12112;SDS011;6120;52.250;8.478;2022-07-29T05:12:26;3.70;;;1.10;;
12112;SDS011;6120;52.250;8.478;2022-07-29T05:14:52;3.88;;;1.20;;
12112;SDS011;6120;52.250;8.478;2022-07-29T05:17:19;2.95;;;1.02;;
12112;SDS011;6120;52.250;8.478;2022-07-29T05:19:46;2.83;;;1.00;;
12112;SDS011;6120;52.250;8.478;2022-07-29T05:22:13;5.05;;;1.40;;
12112;SDS011;6120;52.250;8.478;2022-07-29T05:24:39;2.83;;;1.00;;
12112;SDS011;6120;52.250;8.478;2022-07-29T05:27:07;1.52;;;0.80;;
12112;SDS011;6120;52.250;8.478;2022-07-29T05:29:34;3.28;;;1.35;;
12112;SDS011;6120;52.250;8.478;2022-07-29T05:32:10;5.85;;;1.13;;
12112;SDS011;6120;52.250;8.478;2022-07-29T05:34:38;2.80;;;1.30;;
12112;SDS011;6120;52.250;8.478;2022-07-29T05:37:17;4.43;;;1.40;;
12112;SDS011;6120;52.250;8.478;2022-07-29T05:39:46;4.32;;;1.30;;
12112;SDS011;6120;52.250;8.478;2022-07-29T05:42:23;3.58;;;1.20;;
12112;SDS011;6120;52.250;8.478;2022-07-29T05:44:50;3.90;;;1.50;;
12112;SDS011;6120;52.250;8.478;2022-07-29T05:47:17;3.08;;;1.40;;
12112;SDS011;6120;52.250;8.478;2022-07-29T05:49:43;4.38;;;1.48;;
12112;SDS011;6120;52.250;8.478;2022-07-29T05:52:10;3.97;;;1.08;;
12112;SDS011;6120;52.250;8.478;2022-07-29T05:54:37;2.95;;;1.25;;
12112;SDS011;6120;52.250;8.478;2022-07-29T05:57:03;3.00;;;0.95;;
12112;SDS011;6120;52.250;8.478;2022-07-29T05:59:35;2.17;;;1.20;;
12112;SDS011;6120;52.250;8.478;2022-07-29T06:02:02;3.85;;;1.20;;
12112;SDS011;6120;52.250;8.478;2022-07-29T06:04:31;4.43;;;1.10;;
12112;SDS011;6120;52.250;8.478;2022-07-29T06:06:59;2.72;;;1.10;;
12112;SDS011;6120;52.250;8.478;2022-07-29T06:09:26;6.32;;;1.50;;
12112;SDS011;6120;52.250;8.478;2022-07-29T06:11:54;5.80;;;1.20;;
12112;SDS011;6120;52.250;8.478;2022-07-29T06:14:21;2.42;;;1.00;;
12112;SDS011;6120;52.250;8.478;2022-07-29T06:16:47;3.88;;;1.40;;
12112;SDS011;6120;52.250;8.478;2022-07-29T06:19:14;5.60;;;1.10;;
12112;SDS011;6120;52.250;8.478;2022-07-29T06:21:41;2.83;;;1.33;;
12112;SDS011;6120;52.250;8.478;2022-07-29T06:26:40;3.90;;;1.13;;
12112;SDS011;6120;52.250;8.478;2022-07-29T06:29:07;2.88;;;1.02;;
12112;SDS011;6120;52.250;8.478;2022-07-29T06:31:34;6.13;;;1.20;;
12112;SDS011;6120;52.250;8.478;2022-07-29T06:34:01;4.15;;;1.17;;
12112;SDS011;6120;52.250;8.478;2022-07-29T06:36:28;2.75;;;1.00;;
12112;SDS011;6120;52.250;8.478;2022-07-29T06:38:55;4.70;;;1.20;;
12112;SDS011;6120;52.250;8.478;2022-07-29T06:41:23;3.85;;;1.50;;
12112;SDS011;6120;52.250;8.478;2022-07-29T06:43:50;2.65;;;1.38;;
12112;SDS011;6120;52.250;8.478;2022-07-29T06:46:22;2.05;;;1.50;;
12112;SDS011;6120;52.250;8.478;2022-07-29T06:48:49;2.00;;;1.10;;
12112;SDS011;6120;52.250;8.478;2022-07-29T06:51:17;3.85;;;1.23;;
12112;SDS011;6120;52.250;8.478;2022-07-29T06:53:49;4.00;;;1.40;;
12112;SDS011;6120;52.250;8.478;2022-07-29T06:56:28;2.13;;;0.95;;
12112;SDS011;6120;52.250;8.478;2022-07-29T07:01:23;2.92;;;1.20;;
12112;SDS011;6120;52.250;8.478;2022-07-29T07:03:50;3.25;;;1.20;;
12112;SDS011;6120;52.250;8.478;2022-07-29T07:06:16;3.15;;;1.10;;
12112;SDS011;6120;52.250;8.478;2022-07-29T07:08:43;4.50;;;1.30;;
12112;SDS011;6120;52.250;8.478;2022-07-29T07:11:10;6.40;;;1.33;;
12112;SDS011;6120;52.250;8.478;2022-07-29T07:13:36;5.05;;;1.10;;
12112;SDS011;6120;52.250;8.478;2022-07-29T07:16:03;2.08;;;1.10;;
12112;SDS011;6120;52.250;8.478;2022-07-29T07:18:30;4.20;;;1.52;;
12112;SDS011;6120;52.250;8.478;2022-07-29T07:20:57;3.28;;;1.05;;
12112;SDS011;6120;52.250;8.478;2022-07-29T07:23:24;2.75;;;1.10;;
12112;SDS011;6120;52.250;8.478;2022-07-29T07:25:51;7.05;;;1.30;;
12112;SDS011;6120;52.250;8.478;2022-07-29T07:28:18;3.70;;;1.20;;
12112;SDS011;6120;52.250;8.478;2022-07-29T07:30:50;2.35;;;1.13;;
12112;SDS011;6120;52.250;8.478;2022-07-29T07:33:18;3.80;;;1.50;;
12112;SDS011;6120;52.250;8.478;2022-07-29T07:35:45;4.53;;;1.27;;
12112;SDS011;6120;52.250;8.478;2022-07-29T07:38:11;6.65;;;1.35;;
12112;SDS011;6120;52.250;8.478;2022-07-29T07:40:38;4.28;;;1.40;;
12112;SDS011;6120;52.250;8.478;2022-07-29T07:43:05;3.15;;;1.30;;
12112;SDS011;6120;52.250;8.478;2022-07-29T07:45:32;2.20;;;1.10;;
12112;SDS011;6120;52.250;8.478;2022-07-29T07:47:59;5.55;;;1.60;;
12112;SDS011;6120;52.250;8.478;2022-07-29T07:50:26;3.55;;;1.30;;
12112;SDS011;6120;52.250;8.478;2022-07-29T07:52:54;9.48;;;1.80;;
12112;SDS011;6120;52.250;8.478;2022-07-29T07:55:24;2.80;;;1.10;;
12112;SDS011;6120;52.250;8.478;2022-07-29T07:57:51;4.23;;;1.13;;
12112;SDS011;6120;52.250;8.478;2022-07-29T08:00:18;4.72;;;1.23;;
12112;SDS011;6120;52.250;8.478;2022-07-29T08:02:48;3.75;;;0.98;;
12112;SDS011;6120;52.250;8.478;2022-07-29T08:05:16;3.38;;;1.30;;
12112;SDS011;6120;52.250;8.478;2022-07-29T08:07:44;2.10;;;1.10;;
12112;SDS011;6120;52.250;8.478;2022-07-29T08:10:12;2.72;;;1.20;;
12112;SDS011;6120;52.250;8.478;2022-07-29T08:12:41;3.53;;;1.20;;
12112;SDS011;6120;52.250;8.478;2022-07-29T08:15:07;4.40;;;1.35;;
12112;SDS011;6120;52.250;8.478;2022-07-29T08:17:35;2.80;;;1.20;;
12112;SDS011;6120;52.250;8.478;2022-07-29T08:20:02;3.58;;;1.50;;
12112;SDS011;6120;52.250;8.478;2022-07-29T08:22:29;2.92;;;1.20;;
12112;SDS011;6120;52.250;8.478;2022-07-29T08:24:55;2.38;;;1.05;;
12112;SDS011;6120;52.250;8.478;2022-07-29T08:27:22;5.07;;;1.35;;
12112;SDS011;6120;52.250;8.478;2022-07-29T08:30:09;3.80;;;1.23;;
12112;SDS011;6120;52.250;8.478;2022-07-29T08:32:36;2.43;;;1.10;;
12112;SDS011;6120;52.250;8.478;2022-07-29T08:35:21;3.30;;;1.20;;
12112;SDS011;6120;52.250;8.478;2022-07-29T08:37:48;3.53;;;1.30;;
12112;SDS011;6120;52.250;8.478;2022-07-29T08:40:15;2.67;;;1.20;;
12112;SDS011;6120;52.250;8.478;2022-07-29T08:42:42;4.80;;;1.17;;
12112;SDS011;6120;52.250;8.478;2022-07-29T08:45:09;3.35;;;1.35;;
12112;SDS011;6120;52.250;8.478;2022-07-29T08:47:36;5.75;;;1.30;;
12112;SDS011;6120;52.250;8.478;2022-07-29T08:50:06;7.80;;;1.35;;
12112;SDS011;6120;52.250;8.478;2022-07-29T08:52:37;2.70;;;1.23;;
12112;SDS011;6120;52.250;8.478;2022-07-29T08:55:06;5.30;;;1.45;;
12112;SDS011;6120;52.250;8.478;2022-07-29T08:57:34;4.07;;;1.23;;
12112;SDS011;6120;52.250;8.478;2022-07-29T09:00:03;4.03;;;1.10;;
12112;SDS011;6120;52.250;8.478;2022-07-29T09:02:39;3.38;;;1.40;;
12112;SDS011;6120;52.250;8.478;2022-07-29T09:05:11;1.95;;;0.95;;
12112;SDS011;6120;52.250;8.478;2022-07-29T09:07:38;3.72;;;1.10;;
12112;SDS011;6120;52.250;8.478;2022-07-29T09:10:05;4.68;;;1.58;;
12112;SDS011;6120;52.250;8.478;2022-07-29T09:12:33;6.10;;;1.58;;
12112;SDS011;6120;52.250;8.478;2022-07-29T09:15:03;2.47;;;1.20;;
12112;SDS011;6120;52.250;8.478;2022-07-29T09:20:26;3.88;;;1.27;;
12112;SDS011;6120;52.250;8.478;2022-07-29T09:23:13;4.35;;;1.50;;
12112;SDS011;6120;52.250;8.478;2022-07-29T09:25:49;3.83;;;1.30;;
12112;SDS011;6120;52.250;8.478;2022-07-29T09:28:17;4.72;;;1.80;;
12112;SDS011;6120;52.250;8.478;2022-07-29T09:30:53;3.80;;;1.23;;
12112;SDS011;6120;52.250;8.478;2022-07-29T09:33:22;4.03;;;1.23;;
12112;SDS011;6120;52.250;8.478;2022-07-29T09:36:03;2.20;;;0.93;;
12112;SDS011;6120;52.250;8.478;2022-07-29T09:38:31;3.72;;;1.17;;
12112;SDS011;6120;52.250;8.478;2022-07-29T09:41:02;5.07;;;1.50;;
12112;SDS011;6120;52.250;8.478;2022-07-29T09:43:32;2.92;;;1.30;;
12112;SDS011;6120;52.250;8.478;2022-07-29T09:46:33;4.25;;;1.40;;
12112;SDS011;6120;52.250;8.478;2022-07-29T09:51:38;7.10;;;1.77;;
12112;SDS011;6120;52.250;8.478;2022-07-29T09:54:25;3.83;;;1.20;;
12112;SDS011;6120;52.250;8.478;2022-07-29T09:56:53;3.25;;;1.20;;
12112;SDS011;6120;52.250;8.478;2022-07-29T10:01:50;2.83;;;1.30;;
12112;SDS011;6120;52.250;8.478;2022-07-29T10:04:17;3.58;;;1.30;;
12112;SDS011;6120;52.250;8.478;2022-07-29T10:09:30;4.07;;;1.50;;
12112;SDS011;6120;52.250;8.478;2022-07-29T10:12:04;3.88;;;1.25;;
12112;SDS011;6120;52.250;8.478;2022-07-29T10:14:40;3.67;;;1.48;;
12112;SDS011;6120;52.250;8.478;2022-07-29T10:17:07;3.25;;;1.23;;
12112;SDS011;6120;52.250;8.478;2022-07-29T10:19:36;4.68;;;1.38;;
12112;SDS011;6120;52.250;8.478;2022-07-29T10:22:07;2.50;;;1.25;;
12112;SDS011;6120;52.250;8.478;2022-07-29T10:24:35;6.25;;;1.77;;
12112;SDS011;6120;52.250;8.478;2022-07-29T10:27:04;2.80;;;1.35;;
12112;SDS011;6120;52.250;8.478;2022-07-29T10:29:33;5.38;;;1.60;;
12112;SDS011;6120;52.250;8.478;2022-07-29T10:42:53;5.07;;;1.40;;
12112;SDS011;6120;52.250;8.478;2022-07-29T10:45:20;6.68;;;1.42;;
12112;SDS011;6120;52.250;8.478;2022-07-29T10:47:47;8.33;;;1.90;;
12112;SDS011;6120;52.250;8.478;2022-07-29T10:50:14;4.13;;;1.40;;
12112;SDS011;6120;52.250;8.478;2022-07-29T10:55:35;3.22;;;1.40;;
12112;SDS011;6120;52.250;8.478;2022-07-29T10:58:18;4.28;;;1.55;;
12112;SDS011;6120;52.250;8.478;2022-07-29T11:00:53;5.57;;;1.58;;
12112;SDS011;6120;52.250;8.478;2022-07-29T11:06:16;4.35;;;1.70;;
12112;SDS011;6120;52.250;8.478;2022-07-29T11:11:41;3.28;;;1.40;;
12112;SDS011;6120;52.250;8.478;2022-07-29T11:17:21;5.32;;;1.75;;
12112;SDS011;6120;52.250;8.478;2022-07-29T11:19:49;3.15;;;1.50;;
12112;SDS011;6120;52.250;8.478;2022-07-29T11:22:33;3.53;;;1.80;;
12112;SDS011;6120;52.250;8.478;2022-07-29T11:25:16;9.07;;;1.92;;
12112;SDS011;6120;52.250;8.478;2022-07-29T11:28:12;5.88;;;2.17;;
12112;SDS011;6120;52.250;8.478;2022-07-29T11:30:50;3.92;;;1.88;;
12112;SDS011;6120;52.250;8.478;2022-07-29T11:33:31;5.43;;;1.83;;
12112;SDS011;6120;52.250;8.478;2022-07-29T11:36:18;4.55;;;1.60;;
12112;SDS011;6120;52.250;8.478;2022-07-29T11:39:04;6.72;;;1.83;;
12112;SDS011;6120;52.250;8.478;2022-07-29T11:41:51;15.95;;;1.70;;
12112;SDS011;6120;52.250;8.478;2022-07-29T11:44:18;6.20;;;1.65;;
12112;SDS011;6120;52.250;8.478;2022-07-29T11:46:46;10.95;;;2.08;;
12112;SDS011;6120;52.250;8.478;2022-07-29T11:49:21;6.80;;;1.80;;
12112;SDS011;6120;52.250;8.478;2022-07-29T11:51:58;4.13;;;1.40;;
12112;SDS011;6120;52.250;8.478;2022-07-29T11:54:31;4.32;;;1.67;;
12112;SDS011;6120;52.250;8.478;2022-07-29T11:57:19;5.38;;;2.00;;
12112;SDS011;6120;52.250;8.478;2022-07-29T11:59:47;5.53;;;1.90;;
12112;SDS011;6120;52.250;8.478;2022-07-29T12:02:14;4.72;;;1.65;;
12112;SDS011;6120;52.250;8.478;2022-07-29T12:07:36;4.55;;;1.60;;
12112;SDS011;6120;52.250;8.478;2022-07-29T12:10:04;4.88;;;1.80;;
12112;SDS011;6120;52.250;8.478;2022-07-29T12:12:36;5.15;;;1.65;;
12112;SDS011;6120;52.250;8.478;2022-07-29T12:15:16;4.65;;;1.80;;
12112;SDS011;6120;52.250;8.478;2022-07-29T12:17:47;5.95;;;1.90;;
12112;SDS011;6120;52.250;8.478;2022-07-29T12:20:21;4.97;;;1.63;;
12112;SDS011;6120;52.250;8.478;2022-07-29T12:22:53;6.85;;;1.90;;
12112;SDS011;6120;52.250;8.478;2022-07-29T12:25:21;4.72;;;1.60;;
12112;SDS011;6120;52.250;8.478;2022-07-29T12:28:07;6.55;;;1.63;;
12112;SDS011;6120;52.250;8.478;2022-07-29T12:30:43;6.57;;;1.80;;
12112;SDS011;6120;52.250;8.478;2022-07-29T12:33:21;5.57;;;1.90;;
12112;SDS011;6120;52.250;8.478;2022-07-29T12:35:54;8.35;;;1.80;;
12112;SDS011;6120;52.250;8.478;2022-07-29T12:38:33;3.60;;;1.80;;
12112;SDS011;6120;52.250;8.478;2022-07-29T12:41:03;4.63;;;1.90;;
12112;SDS011;6120;52.250;8.478;2022-07-29T12:43:30;4.07;;;1.80;;
12112;SDS011;6120;52.250;8.478;2022-07-29T12:45:57;5.83;;;2.13;;
12112;SDS011;6120;52.250;8.478;2022-07-29T12:48:40;4.15;;;1.50;;
12112;SDS011;6120;52.250;8.478;2022-07-29T12:51:08;3.83;;;1.58;;
12112;SDS011;6120;52.250;8.478;2022-07-29T12:53:36;7.53;;;1.47;;
12112;SDS011;6120;52.250;8.478;2022-07-29T12:56:04;5.93;;;1.75;;
12112;SDS011;6120;52.250;8.478;2022-07-29T12:58:51;10.52;;;1.98;;
12112;SDS011;6120;52.250;8.478;2022-07-29T13:01:18;4.07;;;1.80;;
12112;SDS011;6120;52.250;8.478;2022-07-29T13:03:56;4.63;;;1.60;;
12112;SDS011;6120;52.250;8.478;2022-07-29T13:11:37;3.63;;;1.42;;
12112;SDS011;6120;52.250;8.478;2022-07-29T13:14:11;3.00;;;1.70;;
12112;SDS011;6120;52.250;8.478;2022-07-29T13:19:36;4.57;;;2.00;;
12112;SDS011;6120;52.250;8.478;2022-07-29T13:22:10;4.90;;;1.50;;
12112;SDS011;6120;52.250;8.478;2022-07-29T13:24:52;8.90;;;1.70;;
12112;SDS011;6120;52.250;8.478;2022-07-29T13:27:30;5.28;;;1.80;;
12112;SDS011;6120;52.250;8.478;2022-07-29T13:29:59;5.45;;;1.60;;
12112;SDS011;6120;52.250;8.478;2022-07-29T13:32:28;6.63;;;1.60;;
12112;SDS011;6120;52.250;8.478;2022-07-29T13:34:56;4.72;;;1.40;;
12112;SDS011;6120;52.250;8.478;2022-07-29T13:37:24;6.30;;;1.98;;
12112;SDS011;6120;52.250;8.478;2022-07-29T13:39:50;7.75;;;1.80;;
12112;SDS011;6120;52.250;8.478;2022-07-29T13:42:19;5.00;;;1.83;;
12112;SDS011;6120;52.250;8.478;2022-07-29T13:44:45;2.40;;;1.08;;
12112;SDS011;6120;52.250;8.478;2022-07-29T13:47:12;4.13;;;1.77;;
12112;SDS011;6120;52.250;8.478;2022-07-29T13:49:39;5.35;;;1.65;;
12112;SDS011;6120;52.250;8.478;2022-07-29T13:52:05;5.32;;;1.52;;
12112;SDS011;6120;52.250;8.478;2022-07-29T13:54:34;5.38;;;1.65;;
12112;SDS011;6120;52.250;8.478;2022-07-29T13:57:07;4.68;;;1.80;;
12112;SDS011;6120;52.250;8.478;2022-07-29T13:59:35;7.07;;;1.67;;
12112;SDS011;6120;52.250;8.478;2022-07-29T14:02:01;4.07;;;1.98;;
12112;SDS011;6120;52.250;8.478;2022-07-29T14:04:28;5.57;;;1.88;;
12112;SDS011;6120;52.250;8.478;2022-07-29T14:06:55;3.53;;;1.95;;
12112;SDS011;6120;52.250;8.478;2022-07-29T14:09:22;4.65;;;1.67;;
12112;SDS011;6120;52.250;8.478;2022-07-29T14:11:49;4.50;;;1.60;;
12112;SDS011;6120;52.250;8.478;2022-07-29T14:16:43;3.45;;;1.42;;
12112;SDS011;6120;52.250;8.478;2022-07-29T14:19:17;3.17;;;1.75;;
12112;SDS011;6120;52.250;8.478;2022-07-29T14:21:43;5.25;;;1.60;;
12112;SDS011;6120;52.250;8.478;2022-07-29T14:24:10;4.90;;;1.60;;
12112;SDS011;6120;52.250;8.478;2022-07-29T14:26:47;6.38;;;2.05;;
12112;SDS011;6120;52.250;8.478;2022-07-29T14:29:13;8.32;;;1.90;;
12112;SDS011;6120;52.250;8.478;2022-07-29T14:31:40;3.70;;;1.50;;
12112;SDS011;6120;52.250;8.478;2022-07-29T14:34:07;6.55;;;1.85;;
12112;SDS011;6120;52.250;8.478;2022-07-29T14:36:33;5.65;;;1.67;;
12112;SDS011;6120;52.250;8.478;2022-07-29T14:39:01;4.57;;;1.70;;
12112;SDS011;6120;52.250;8.478;2022-07-29T14:41:27;5.07;;;1.80;;
12112;SDS011;6120;52.250;8.478;2022-07-29T14:43:54;4.78;;;1.90;;
12112;SDS011;6120;52.250;8.478;2022-07-29T14:46:21;4.95;;;2.08;;
12112;SDS011;6120;52.250;8.478;2022-07-29T14:48:48;4.20;;;1.92;;
12112;SDS011;6120;52.250;8.478;2022-07-29T14:51:14;7.97;;;1.95;;
12112;SDS011;6120;52.250;8.478;2022-07-29T14:53:41;5.28;;;1.95;;
12112;SDS011;6120;52.250;8.478;2022-07-29T14:56:08;6.93;;;2.15;;
12112;SDS011;6120;52.250;8.478;2022-07-29T14:58:58;3.53;;;1.83;;
12112;SDS011;6120;52.250;8.478;2022-07-29T15:01:24;6.28;;;2.00;;
12112;SDS011;6120;52.250;8.478;2022-07-29T15:03:51;7.00;;;2.10;;
12112;SDS011;6120;52.250;8.478;2022-07-29T15:06:24;3.75;;;1.70;;
12112;SDS011;6120;52.250;8.478;2022-07-29T15:08:51;6.30;;;2.35;;
12112;SDS011;6120;52.250;8.478;2022-07-29T15:11:17;5.07;;;1.98;;
12112;SDS011;6120;52.250;8.478;2022-07-29T15:13:44;6.03;;;2.00;;
12112;SDS011;6120;52.250;8.478;2022-07-29T15:16:11;4.75;;;2.20;;
12112;SDS011;6120;52.250;8.478;2022-07-29T15:18:38;3.85;;;1.77;;
12112;SDS011;6120;52.250;8.478;2022-07-29T15:21:04;6.05;;;1.90;;
12112;SDS011;6120;52.250;8.478;2022-07-29T15:26:02;4.30;;;1.92;;
12112;SDS011;6120;52.250;8.478;2022-07-29T15:28:30;9.63;;;2.10;;
12112;SDS011;6120;52.250;8.478;2022-07-29T15:30:57;5.00;;;1.88;;
12112;SDS011;6120;52.250;8.478;2022-07-29T15:33:23;3.50;;;1.77;;
12112;SDS011;6120;52.250;8.478;2022-07-29T15:35:50;3.92;;;1.60;;
12112;SDS011;6120;52.250;8.478;2022-07-29T15:38:17;4.65;;;1.95;;
12112;SDS011;6120;52.250;8.478;2022-07-29T15:40:43;5.13;;;2.00;;
12112;SDS011;6120;52.250;8.478;2022-07-29T15:43:11;5.25;;;2.25;;
12112;SDS011;6120;52.250;8.478;2022-07-29T15:45:41;3.83;;;1.90;;
12112;SDS011;6120;52.250;8.478;2022-07-29T15:48:28;5.47;;;1.83;;
12112;SDS011;6120;52.250;8.478;2022-07-29T15:50:55;6.65;;;1.92;;
12112;SDS011;6120;52.250;8.478;2022-07-29T15:53:22;4.68;;;2.08;;
12112;SDS011;6120;52.250;8.478;2022-07-29T15:55:48;4.30;;;2.00;;
12112;SDS011;6120;52.250;8.478;2022-07-29T15:58:15;5.15;;;2.28;;
12112;SDS011;6120;52.250;8.478;2022-07-29T16:00:42;5.70;;;2.40;;
12112;SDS011;6120;52.250;8.478;2022-07-29T16:03:09;3.63;;;1.83;;
12112;SDS011;6120;52.250;8.478;2022-07-29T16:05:36;7.03;;;2.35;;
12112;SDS011;6120;52.250;8.478;2022-07-29T16:08:03;5.20;;;1.90;;
12112;SDS011;6120;52.250;8.478;2022-07-29T16:10:29;4.63;;;2.20;;
12112;SDS011;6120;52.250;8.478;2022-07-29T16:12:56;6.38;;;2.17;;
12112;SDS011;6120;52.250;8.478;2022-07-29T16:15:23;6.65;;;2.10;;
12112;SDS011;6120;52.250;8.478;2022-07-29T16:17:50;8.60;;;2.40;;
12112;SDS011;6120;52.250;8.478;2022-07-29T16:20:16;13.98;;;2.53;;
12112;SDS011;6120;52.250;8.478;2022-07-29T16:22:43;8.90;;;2.10;;